Time;durP1;ratioP1;P1;durP2;ratioP2;P2;SDS_P1;SDS_P2;PMS_P1;PMS_P2;Temp;Humidity;BMP_temperature;BMP_pressure;BME280_temperature;BME280_humidity;BME280_pressure;Samples;Min_cycle;Max_cycle;Signal;HPM_P1;HPM_P2
2021/07/15 00:00:49;;;;;;;7.43;5.47;;;;;;;;;;5023608;28;20040;-77
2021/07/15 00:03:34;;;;;;;7.82;5.68;;;;;;;;;;5023482;28;20402;-77
2021/07/15 00:06:19;;;;;;;6.35;4.75;;;;;;;;;;5030199;28;20083;-77
2021/07/15 00:09:03;;;;;;;6.63;4.88;;;;;;;;;;5023265;28;20041;-77
2021/07/15 00:11:48;;;;;;;6.40;5.15;;;;;;;;;;5009559;28;20063;-77
2021/07/15 00:14:33;;;;;;;6.40;4.68;;;;;;;;;;5022889;28;20056;-77
2021/07/15 00:17:18;;;;;;;9.02;5.00;;;;;;;;;;5023667;28;20048;-77
2021/07/15 00:20:03;;;;;;;6.93;4.57;;;;;;;;;;5018268;28;20099;-77
2021/07/15 00:22:47;;;;;;;6.70;4.32;;;;;;;;;;5020357;28;20107;-77
2021/07/15 00:25:32;;;;;;;8.07;4.82;;;;;;;;;;5022428;28;20521;-77
2021/07/15 00:28:17;;;;;;;7.93;5.07;;;;;;;;;;5024133;28;20060;-76
2021/07/15 00:31:02;;;;;;;8.68;4.47;;;;;;;;;;5022280;28;20039;-77
2021/07/15 00:33:46;;;;;;;5.45;4.45;;;;;;;;;;5023261;28;20044;-76
2021/07/15 00:36:31;;;;;;;7.47;4.85;;;;;;;;;;5023548;28;20044;-76
2021/07/15 00:39:15;;;;;;;6.70;4.60;;;;;;;;;;5008165;28;20597;-77
2021/07/15 00:42:00;;;;;;;6.13;4.50;;;;;;;;;;5023858;28;20616;-78
2021/07/15 00:44:44;;;;;;;5.85;4.18;;;;;;;;;;5024383;28;20040;-77
2021/07/15 00:47:29;;;;;;;6.40;4.22;;;;;;;;;;5023864;28;20414;-77
2021/07/15 00:50:13;;;;;;;6.82;4.60;;;;;;;;;;5010744;28;20064;-77
2021/07/15 00:52:58;;;;;;;6.35;4.50;;;;;;;;;;5023422;28;20418;-77
2021/07/15 00:55:43;;;;;;;6.50;3.88;;;;;;;;;;5022305;28;20032;-78
2021/07/15 00:58:28;;;;;;;6.13;4.43;;;;;;;;;;5022593;28;20044;-77
2021/07/15 01:01:13;;;;;;;4.85;3.90;;;;;;;;;;5023596;28;20127;-77
2021/07/15 01:03:57;;;;;;;5.50;4.10;;;;;;;;;;5024576;28;20085;-77
2021/07/15 01:06:42;;;;;;;6.65;4.05;;;;;;;;;;5023825;28;20048;-77
2021/07/15 01:09:26;;;;;;;6.03;4.20;;;;;;;;;;5012856;28;20143;-76
2021/07/15 01:12:14;;;;;;;6.20;4.20;;;;;;;;;;5009415;28;20512;-76
2021/07/15 01:15:07;;;;;;;5.30;3.78;;;;;;;;;;5024290;28;20566;-76
2021/07/15 01:17:57;;;;;;;5.35;3.60;;;;;;;;;;5023342;28;20067;-77
2021/07/15 01:20:41;;;;;;;5.43;3.72;;;;;;;;;;5021982;28;20111;-76
2021/07/15 01:23:41;;;;;;;7.57;3.97;;;;;;;;;;5023024;28;20080;-77
2021/07/15 01:26:29;;;;;;;4.72;3.70;;;;;;;;;;5022975;28;20453;-77
2021/07/15 01:29:17;;;;;;;5.63;4.10;;;;;;;;;;5023786;28;20037;-77
2021/07/15 01:32:03;;;;;;;5.82;3.75;;;;;;;;;;5021332;28;20041;-76
2021/07/15 01:34:48;;;;;;;5.35;3.88;;;;;;;;;;5021995;28;20044;-77
2021/07/15 01:37:32;;;;;;;5.97;3.65;;;;;;;;;;5008607;28;20044;-77
2021/07/15 01:40:17;;;;;;;5.68;4.10;;;;;;;;;;5023095;28;20072;-77
2021/07/15 01:43:03;;;;;;;5.13;3.75;;;;;;;;;;5008949;28;20068;-78
2021/07/15 01:45:48;;;;;;;5.20;3.60;;;;;;;;;;5023534;28;20080;-77
2021/07/15 01:48:32;;;;;;;6.03;3.63;;;;;;;;;;5022943;28;20040;-77
2021/07/15 01:51:16;;;;;;;5.47;3.60;;;;;;;;;;5008961;28;20131;-76
2021/07/15 01:54:01;;;;;;;5.68;3.60;;;;;;;;;;5025082;28;20106;-77
2021/07/15 01:56:46;;;;;;;4.28;3.17;;;;;;;;;;5015077;28;20521;-77
2021/07/15 01:59:31;;;;;;;5.40;3.60;;;;;;;;;;5024234;28;20072;-76
2021/07/15 02:02:15;;;;;;;4.30;3.00;;;;;;;;;;5011521;28;20568;-76
2021/07/15 02:05:00;;;;;;;5.22;3.55;;;;;;;;;;5024991;28;20040;-76
2021/07/15 02:07:44;;;;;;;5.22;3.20;;;;;;;;;;5019833;28;20052;-76
2021/07/15 02:10:29;;;;;;;4.43;3.03;;;;;;;;;;5024888;28;20040;-76
2021/07/15 02:13:14;;;;;;;7.03;3.17;;;;;;;;;;5028826;28;20048;-76
2021/07/15 02:15:59;;;;;;;5.15;3.50;;;;;;;;;;5028462;28;20075;-77
2021/07/15 02:18:44;;;;;;;4.28;3.05;;;;;;;;;;5015052;28;20044;-76
2021/07/15 02:21:29;;;;;;;4.80;3.28;;;;;;;;;;5028011;28;20060;-77
2021/07/15 02:24:14;;;;;;;4.53;3.20;;;;;;;;;;5014521;28;20048;-76
2021/07/15 02:26:59;;;;;;;4.65;3.22;;;;;;;;;;5028618;28;20055;-76
2021/07/15 02:29:44;;;;;;;5.00;3.13;;;;;;;;;;5013622;28;20461;-76
2021/07/15 02:32:29;;;;;;;4.53;2.88;;;;;;;;;;5013337;28;20528;-76
2021/07/15 02:35:15;;;;;;;4.22;3.03;;;;;;;;;;5014555;28;20072;-76
2021/07/15 02:37:59;;;;;;;4.20;3.20;;;;;;;;;;5014149;28;20100;-77
2021/07/15 02:40:44;;;;;;;4.15;2.75;;;;;;;;;;5026474;28;20060;-76
2021/07/15 02:43:29;;;;;;;3.50;2.75;;;;;;;;;;5027685;28;20065;-77
2021/07/15 02:46:13;;;;;;;3.42;2.88;;;;;;;;;;5029135;28;20398;-77
2021/07/15 02:48:58;;;;;;;4.47;3.28;;;;;;;;;;5029060;28;20049;-76
2021/07/15 02:51:43;;;;;;;5.30;3.05;;;;;;;;;;5029012;28;20040;-76
2021/07/15 02:54:27;;;;;;;3.97;2.85;;;;;;;;;;5027674;28;20043;-76
2021/07/15 02:57:26;;;;;;;5.00;3.17;;;;;;;;;;5023915;28;20044;-76
2021/07/15 03:00:14;;;;;;;3.97;2.83;;;;;;;;;;5027368;28;20052;-77
2021/07/15 03:03:03;;;;;;;4.00;2.85;;;;;;;;;;5025475;28;20036;-77
2021/07/15 03:05:51;;;;;;;3.70;2.70;;;;;;;;;;5028757;28;20044;-77
2021/07/15 03:08:36;;;;;;;3.53;2.70;;;;;;;;;;5028144;28;20047;-76
2021/07/15 03:11:21;;;;;;;3.95;2.40;;;;;;;;;;5023815;28;20037;-77
2021/07/15 03:14:06;;;;;;;4.13;2.90;;;;;;;;;;5027110;28;20064;-76
2021/07/15 03:16:50;;;;;;;4.38;2.70;;;;;;;;;;5026616;28;20044;-76
2021/07/15 03:19:36;;;;;;;3.28;2.70;;;;;;;;;;5027055;28;20040;-76
2021/07/15 03:22:20;;;;;;;3.70;2.65;;;;;;;;;;5012410;28;20037;-76
2021/07/15 03:25:06;;;;;;;4.45;3.20;;;;;;;;;;5027155;28;20585;-76
2021/07/15 03:27:51;;;;;;;4.07;2.67;;;;;;;;;;5027128;28;20544;-76
2021/07/15 03:30:36;;;;;;;5.68;2.80;;;;;;;;;;5011439;28;20584;-77
2021/07/15 03:33:24;;;;;;;3.17;2.50;;;;;;;;;;5023742;28;20052;-76
2021/07/15 03:36:09;;;;;;;3.70;2.45;;;;;;;;;;5027168;28;20077;-76
2021/07/15 03:38:53;;;;;;;7.63;2.97;;;;;;;;;;5025055;28;20044;-76
2021/07/15 03:41:38;;;;;;;4.15;2.75;;;;;;;;;;5027442;28;20044;-77
2021/07/15 03:44:22;;;;;;;3.50;2.65;;;;;;;;;;5022833;28;20044;-76
2021/07/15 03:47:07;;;;;;;4.10;2.97;;;;;;;;;;5025818;28;20048;-76
2021/07/15 03:49:51;;;;;;;3.95;2.97;;;;;;;;;;5012934;28;20125;-77
2021/07/15 03:52:36;;;;;;;4.07;2.97;;;;;;;;;;5024315;28;20099;-76
2021/07/15 03:55:22;;;;;;;3.97;2.92;;;;;;;;;;5025237;28;20032;-77
2021/07/15 03:58:07;;;;;;;3.88;2.90;;;;;;;;;;5008142;28;20068;-77
2021/07/15 04:00:52;;;;;;;4.15;2.88;;;;;;;;;;5024560;28;20128;-77
2021/07/15 04:03:37;;;;;;;3.67;2.60;;;;;;;;;;5026339;28;20552;-77
2021/07/15 04:06:22;;;;;;;3.60;2.65;;;;;;;;;;5008618;28;20041;-77
2021/07/15 04:09:07;;;;;;;3.75;2.70;;;;;;;;;;5012453;28;20040;-77
2021/07/15 04:11:52;;;;;;;5.28;3.00;;;;;;;;;;5026084;28;20043;-77
2021/07/15 04:14:40;;;;;;;4.20;2.58;;;;;;;;;;5012031;28;20103;-78
2021/07/15 04:17:24;;;;;;;4.00;2.70;;;;;;;;;;5026745;28;20497;-77
2021/07/15 04:20:09;;;;;;;4.10;2.90;;;;;;;;;;5026364;28;20064;-77
2021/07/15 04:22:59;;;;;;;4.00;2.50;;;;;;;;;;5023710;28;20521;-77
2021/07/15 04:25:43;;;;;;;3.83;2.53;;;;;;;;;;5024478;28;20063;-77
2021/07/15 04:28:28;;;;;;;4.47;2.63;;;;;;;;;;5011838;28;20048;-77
2021/07/15 04:31:19;;;;;;;3.92;2.60;;;;;;;;;;5025225;28;20052;-77
2021/07/15 04:34:03;;;;;;;4.10;2.70;;;;;;;;;;5024680;28;20048;-78
2021/07/15 04:36:48;;;;;;;3.55;2.47;;;;;;;;;;5023141;28;20048;-77
2021/07/15 04:39:33;;;;;;;3.85;2.72;;;;;;;;;;5011955;28;20082;-77
2021/07/15 04:42:18;;;;;;;3.72;2.80;;;;;;;;;;5025942;28;20051;-77
2021/07/15 04:45:03;;;;;;;4.28;2.72;;;;;;;;;;5023585;28;20128;-77
2021/07/15 04:47:48;;;;;;;3.67;2.80;;;;;;;;;;5026726;28;20524;-78
2021/07/15 04:50:33;;;;;;;3.72;2.78;;;;;;;;;;5008866;28;20148;-77
2021/07/15 04:53:19;;;;;;;3.70;2.42;;;;;;;;;;5023828;28;20184;-78
2021/07/15 04:56:04;;;;;;;3.58;2.50;;;;;;;;;;5009110;28;20079;-78
2021/07/15 04:58:49;;;;;;;4.28;2.88;;;;;;;;;;5022708;28;20047;-78
2021/07/15 05:01:33;;;;;;;5.18;2.70;;;;;;;;;;5022910;28;20144;-78
2021/07/15 05:04:19;;;;;;;4.38;3.05;;;;;;;;;;5023389;28;20095;-78
2021/07/15 05:07:04;;;;;;;4.68;2.72;;;;;;;;;;5009268;28;20103;-79
2021/07/15 05:09:49;;;;;;;3.90;2.60;;;;;;;;;;5000661;28;20084;-78
2021/07/15 05:12:34;;;;;;;4.10;2.80;;;;;;;;;;5024271;28;20103;-77
2021/07/15 05:15:18;;;;;;;3.65;2.60;;;;;;;;;;5021793;28;20133;-76
2021/07/15 05:18:02;;;;;;;3.60;2.60;;;;;;;;;;5009318;28;20071;-76
2021/07/15 05:20:47;;;;;;;3.88;2.80;;;;;;;;;;5019339;28;20072;-78
2021/07/15 05:23:31;;;;;;;3.83;2.33;;;;;;;;;;5018024;28;20052;-76
2021/07/15 05:26:16;;;;;;;5.38;3.10;;;;;;;;;;5023124;28;20111;-78
2021/07/15 05:29:00;;;;;;;3.67;2.70;;;;;;;;;;5022439;28;20072;-76
2021/07/15 05:31:45;;;;;;;4.22;2.83;;;;;;;;;;5013887;28;20040;-78
2021/07/15 05:34:29;;;;;;;3.75;2.55;;;;;;;;;;5023371;28;20104;-78
2021/07/15 05:37:14;;;;;;;3.72;2.55;;;;;;;;;;5024330;28;20536;-78
2021/07/15 05:39:58;;;;;;;3.55;2.58;;;;;;;;;;5017195;28;20040;-78
2021/07/15 05:42:43;;;;;;;3.80;2.47;;;;;;;;;;5022595;28;20036;-78
2021/07/15 05:45:28;;;;;;;2.90;2.50;;;;;;;;;;5023489;28;20772;-78
2021/07/15 05:48:12;;;;;;;4.93;2.63;;;;;;;;;;5012591;28;20080;-79
2021/07/15 05:50:57;;;;;;;3.92;2.88;;;;;;;;;;5010299;28;20055;-78
2021/07/15 05:53:42;;;;;;;4.07;2.60;;;;;;;;;;5023535;28;20524;-78
2021/07/15 05:56:27;;;;;;;3.97;2.35;;;;;;;;;;5025376;28;20456;-79
2021/07/15 05:59:11;;;;;;;2.80;2.30;;;;;;;;;;5026682;28;20049;-79
2021/07/15 06:01:56;;;;;;;3.95;2.88;;;;;;;;;;5027294;28;20141;-79
2021/07/15 06:04:40;;;;;;;3.85;2.63;;;;;;;;;;5025480;28;20068;-78
2021/07/15 06:07:26;;;;;;;2.88;2.28;;;;;;;;;;5025186;28;20107;-78
2021/07/15 06:10:11;;;;;;;3.47;2.63;;;;;;;;;;5026548;28;20084;-78
2021/07/15 06:12:56;;;;;;;3.95;2.60;;;;;;;;;;5007281;28;20053;-79
2021/07/15 06:15:41;;;;;;;3.10;2.30;;;;;;;;;;5024430;28;20514;-78
2021/07/15 06:18:25;;;;;;;3.95;2.38;;;;;;;;;;5025629;28;20075;-78
2021/07/15 06:21:10;;;;;;;3.85;2.65;;;;;;;;;;5025489;28;20067;-79
2021/07/15 06:23:54;;;;;;;4.07;2.38;;;;;;;;;;5025769;28;20440;-78
2021/07/15 06:26:39;;;;;;;3.55;2.40;;;;;;;;;;5025719;28;20126;-78
2021/07/15 06:29:24;;;;;;;3.50;2.40;;;;;;;;;;5011026;28;20145;-76
2021/07/15 06:32:08;;;;;;;3.53;2.55;;;;;;;;;;5024685;28;20709;-77
2021/07/15 06:34:53;;;;;;;3.40;2.50;;;;;;;;;;5024544;28;20045;-77
2021/07/15 06:37:39;;;;;;;3.80;2.60;;;;;;;;;;5024432;28;20091;-77
2021/07/15 06:40:25;;;;;;;3.25;2.45;;;;;;;;;;5022187;28;20067;-77
2021/07/15 06:43:09;;;;;;;3.83;2.30;;;;;;;;;;5011170;28;20052;-77
2021/07/15 06:45:54;;;;;;;4.47;2.30;;;;;;;;;;5026231;28;20516;-77
2021/07/15 06:48:38;;;;;;;3.78;2.50;;;;;;;;;;4994081;28;20411;-77
2021/07/15 06:51:23;;;;;;;3.22;2.03;;;;;;;;;;5025636;28;20120;-77
2021/07/15 06:54:07;;;;;;;2.95;2.28;;;;;;;;;;5015335;28;20044;-77
2021/07/15 06:56:52;;;;;;;3.45;2.28;;;;;;;;;;5025604;28;20072;-78
2021/07/15 06:59:36;;;;;;;2.78;2.17;;;;;;;;;;5025477;28;20044;-77
2021/07/15 07:02:21;;;;;;;3.45;2.10;;;;;;;;;;5010841;28;20044;-78
2021/07/15 07:05:06;;;;;;;3.33;2.42;;;;;;;;;;5025638;28;20041;-77
2021/07/15 07:07:52;;;;;;;3.67;2.30;;;;;;;;;;5024993;28;20053;-77
2021/07/15 07:10:37;;;;;;;4.05;2.10;;;;;;;;;;5010177;28;20063;-78
2021/07/15 07:13:21;;;;;;;2.85;2.08;;;;;;;;;;5025805;28;20068;-77
2021/07/15 07:16:06;;;;;;;3.20;2.50;;;;;;;;;;5010412;28;20096;-78
2021/07/15 07:18:51;;;;;;;3.75;2.03;;;;;;;;;;5008207;28;20228;-77
2021/07/15 07:21:35;;;;;;;3.28;2.35;;;;;;;;;;5024432;28;20087;-77
2021/07/15 07:24:20;;;;;;;2.80;1.92;;;;;;;;;;5021977;28;20151;-77
2021/07/15 07:27:04;;;;;;;2.63;1.95;;;;;;;;;;5010589;28;20048;-77
2021/07/15 07:29:49;;;;;;;2.95;2.05;;;;;;;;;;5011449;28;20115;-78
2021/07/15 07:32:33;;;;;;;2.95;1.90;;;;;;;;;;5023241;28;20125;-78
2021/07/15 07:35:18;;;;;;;3.03;1.73;;;;;;;;;;5026026;28;20103;-78
2021/07/15 07:38:03;;;;;;;2.50;1.70;;;;;;;;;;5022673;28;20072;-78
2021/07/15 07:40:47;;;;;;;3.50;1.95;;;;;;;;;;5010577;28;20083;-77
2021/07/15 07:43:32;;;;;;;2.55;1.83;;;;;;;;;;5020002;28;20032;-78
2021/07/15 07:46:16;;;;;;;2.25;1.67;;;;;;;;;;5025657;28;20044;-77
2021/07/15 07:49:01;;;;;;;2.50;1.60;;;;;;;;;;5023984;28;20099;-77
2021/07/15 07:51:46;;;;;;;2.80;1.67;;;;;;;;;;5023575;28;20047;-77
2021/07/15 07:54:30;;;;;;;3.50;1.90;;;;;;;;;;5024009;28;20095;-77
2021/07/15 07:57:15;;;;;;;2.55;1.80;;;;;;;;;;5010234;28;20079;-77
2021/07/15 08:00:00;;;;;;;2.65;1.80;;;;;;;;;;5025150;28;20421;-78
2021/07/15 08:02:48;;;;;;;2.60;1.65;;;;;;;;;;5020667;28;20120;-78
2021/07/15 08:05:37;;;;;;;3.38;2.17;;;;;;;;;;5010402;28;20047;-78
2021/07/15 08:08:22;;;;;;;3.30;1.88;;;;;;;;;;5010643;28;20140;-77
2021/07/15 08:11:07;;;;;;;2.80;1.95;;;;;;;;;;5023765;28;20506;-77
2021/07/15 08:13:52;;;;;;;2.28;1.77;;;;;;;;;;5009381;28;20718;-78
2021/07/15 08:16:36;;;;;;;3.03;1.73;;;;;;;;;;5005494;28;20045;-78
2021/07/15 08:19:21;;;;;;;2.63;1.77;;;;;;;;;;5024026;28;20415;-78
2021/07/15 08:22:06;;;;;;;3.30;1.80;;;;;;;;;;5023962;28;20040;-77
2021/07/15 08:24:50;;;;;;;4.07;2.03;;;;;;;;;;5019287;28;20037;-77
2021/07/15 08:27:35;;;;;;;2.75;1.80;;;;;;;;;;5023875;28;20076;-78
2021/07/15 08:30:19;;;;;;;2.60;1.70;;;;;;;;;;5023555;28;20187;-78
2021/07/15 08:33:04;;;;;;;3.28;1.70;;;;;;;;;;5022169;28;20087;-77
2021/07/15 08:35:49;;;;;;;3.25;1.70;;;;;;;;;;5010450;28;20076;-77
2021/07/15 08:38:33;;;;;;;2.70;2.00;;;;;;;;;;5024162;28;20084;-78
2021/07/15 08:41:18;;;;;;;2.63;1.73;;;;;;;;;;5023905;28;20047;-76
2021/07/15 08:44:04;;;;;;;2.53;1.70;;;;;;;;;;5023296;28;20072;-77
2021/07/15 08:46:49;;;;;;;2.55;1.65;;;;;;;;;;5009095;28;20500;-78
2021/07/15 08:49:34;;;;;;;2.13;1.58;;;;;;;;;;5006533;28;20623;-77
2021/07/15 08:52:19;;;;;;;2.72;1.83;;;;;;;;;;5008870;28;20072;-78
2021/07/15 08:57:52;;;;;;;2.40;1.80;;;;;;;;;;5020686;28;20126;-77
2021/07/15 09:00:37;;;;;;;2.33;1.77;;;;;;;;;;5023115;28;20144;-77
2021/07/15 09:03:22;;;;;;;2.30;1.73;;;;;;;;;;5034403;28;20037;-78
2021/07/15 09:06:06;;;;;;;2.80;1.77;;;;;;;;;;5016530;28;20036;-79
2021/07/15 09:08:52;;;;;;;2.90;1.73;;;;;;;;;;5022190;28;20055;-77
2021/07/15 09:11:37;;;;;;;2.50;1.80;;;;;;;;;;5023857;28;20057;-77
2021/07/15 09:14:22;;;;;;;2.60;1.83;;;;;;;;;;5024012;28;20510;-78
2021/07/15 09:17:06;;;;;;;2.67;1.60;;;;;;;;;;5024525;28;20749;-78
2021/07/15 09:19:51;;;;;;;2.83;1.80;;;;;;;;;;5022160;28;20052;-78
2021/07/15 09:22:53;;;;;;;2.88;1.63;;;;;;;;;;5017596;28;20029;-77
2021/07/15 09:25:38;;;;;;;2.30;1.63;;;;;;;;;;5026482;28;20033;-77
2021/07/15 09:28:26;;;;;;;2.63;1.98;;;;;;;;;;5027238;28;20059;-77
2021/07/15 09:31:18;;;;;;;2.78;1.98;;;;;;;;;;5009886;28;20071;-77
2021/07/15 09:34:03;;;;;;;2.40;1.70;;;;;;;;;;5012634;28;20092;-77
2021/07/15 09:36:48;;;;;;;3.63;1.90;;;;;;;;;;5024421;28;20398;-77
2021/07/15 09:39:32;;;;;;;2.47;1.75;;;;;;;;;;5020207;28;20064;-77
2021/07/15 09:42:18;;;;;;;2.30;1.77;;;;;;;;;;5028712;28;20040;-77
2021/07/15 09:45:03;;;;;;;3.13;1.67;;;;;;;;;;5027594;28;20076;-77
2021/07/15 09:47:48;;;;;;;2.83;1.90;;;;;;;;;;5025798;28;20044;-77
2021/07/15 09:50:33;;;;;;;2.90;1.85;;;;;;;;;;5023943;28;20071;-77
2021/07/15 09:53:31;;;;;;;2.60;1.83;;;;;;;;;;5012386;28;20079;-77
2021/07/15 09:56:16;;;;;;;2.20;1.80;;;;;;;;;;5026053;28;20088;-77
2021/07/15 09:59:01;;;;;;;2.38;1.90;;;;;;;;;;5023373;28;20208;-77
2021/07/15 10:01:46;;;;;;;3.13;2.08;;;;;;;;;;5012708;28;20099;-77
2021/07/15 10:04:31;;;;;;;3.28;1.98;;;;;;;;;;5012285;28;20072;-78
2021/07/15 10:07:15;;;;;;;2.95;2.10;;;;;;;;;;5027192;28;20099;-77
2021/07/15 10:10:16;;;;;;;2.75;2.10;;;;;;;;;;5025074;28;20489;-77
2021/07/15 10:13:17;;;;;;;3.30;2.10;;;;;;;;;;5022924;28;20060;-77
2021/07/15 10:16:03;;;;;;;2.15;1.77;;;;;;;;;;5021741;28;20044;-79
2021/07/15 10:18:50;;;;;;;2.78;2.10;;;;;;;;;;5014520;28;20484;-76
2021/07/15 10:21:35;;;;;;;3.20;2.38;;;;;;;;;;5021218;28;20076;-78
2021/07/15 10:24:25;;;;;;;2.50;2.00;;;;;;;;;;5004870;28;20099;-78
2021/07/15 10:27:10;;;;;;;3.00;2.10;;;;;;;;;;5024518;28;20060;-77
2021/07/15 10:29:55;;;;;;;2.70;2.05;;;;;;;;;;5025687;28;20522;-78
2021/07/15 10:32:40;;;;;;;2.38;1.95;;;;;;;;;;5023096;28;20045;-78
2021/07/15 10:35:26;;;;;;;4.05;2.38;;;;;;;;;;5007347;28;20996;-77
2021/07/15 10:38:10;;;;;;;3.05;2.10;;;;;;;;;;5025964;28;20087;-75
2021/07/15 10:40:56;;;;;;;3.33;2.20;;;;;;;;;;5022319;28;20052;-75
2021/07/15 10:43:41;;;;;;;2.80;2.30;;;;;;;;;;5006215;28;20822;-77
2021/07/15 10:46:25;;;;;;;3.33;1.98;;;;;;;;;;5018877;28;20041;-75
2021/07/15 10:49:10;;;;;;;3.33;1.90;;;;;;;;;;5025405;28;20048;-75
2021/07/15 10:51:56;;;;;;;2.65;2.10;;;;;;;;;;5023742;28;20041;-75
2021/07/15 10:54:41;;;;;;;3.88;2.20;;;;;;;;;;5025860;28;20044;-75
2021/07/15 10:57:26;;;;;;;3.63;2.42;;;;;;;;;;5009611;28;20518;-76
2021/07/15 11:00:17;;;;;;;3.03;2.20;;;;;;;;;;5024592;28;20160;-77
2021/07/15 11:03:08;;;;;;;3.78;2.50;;;;;;;;;;5014283;28;20040;-76
2021/07/15 11:05:57;;;;;;;3.00;2.47;;;;;;;;;;5007601;28;20044;-75
2021/07/15 11:08:45;;;;;;;4.05;2.40;;;;;;;;;;5023583;28;20536;-75
2021/07/15 11:11:34;;;;;;;3.25;1.90;;;;;;;;;;5024501;28;20048;-76
2021/07/15 11:14:38;;;;;;;2.83;2.38;;;;;;;;;;5011136;28;20044;-77
2021/07/15 11:17:26;;;;;;;3.83;2.00;;;;;;;;;;5017884;28;20048;-76
2021/07/15 11:20:14;;;;;;;3.00;2.42;;;;;;;;;;5023154;28;20094;-77
2021/07/15 11:23:00;;;;;;;2.97;2.35;;;;;;;;;;5023611;28;20410;-76
2021/07/15 11:25:44;;;;;;;3.85;2.75;;;;;;;;;;5022599;28;20187;-76
2021/07/15 11:28:29;;;;;;;3.47;2.30;;;;;;;;;;5009126;28;20048;-75
2021/07/15 11:31:13;;;;;;;3.42;2.40;;;;;;;;;;5001295;28;20172;-76
2021/07/15 11:33:58;;;;;;;3.72;2.50;;;;;;;;;;5020543;28;20101;-76
2021/07/15 11:36:42;;;;;;;3.05;2.50;;;;;;;;;;5018454;28;20459;-76
2021/07/15 11:39:33;;;;;;;3.50;2.22;;;;;;;;;;5016796;28;21975;-75
2021/07/15 11:42:21;;;;;;;4.45;2.38;;;;;;;;;;5015552;28;20211;-75
2021/07/15 11:45:09;;;;;;;4.07;2.70;;;;;;;;;;5017164;28;20129;-76
2021/07/15 11:47:54;;;;;;;5.50;2.70;;;;;;;;;;5019417;28;20710;-75
2021/07/15 11:50:40;;;;;;;3.75;2.50;;;;;;;;;;5009634;28;20040;-76
2021/07/15 11:53:25;;;;;;;3.00;2.50;;;;;;;;;;5031933;28;20103;-75
2021/07/15 11:56:19;;;;;;;3.45;2.65;;;;;;;;;;5019193;28;20048;-75
2021/07/15 11:59:03;;;;;;;3.20;2.60;;;;;;;;;;5017329;28;20056;-75
2021/07/15 12:02:02;;;;;;;4.32;2.60;;;;;;;;;;5026637;28;20049;-75
2021/07/15 12:05:06;;;;;;;4.38;2.88;;;;;;;;;;5018427;28;20041;-75
2021/07/15 12:08:00;;;;;;;4.95;3.00;;;;;;;;;;5019835;28;20440;-78
2021/07/15 12:10:46;;;;;;;4.97;3.10;;;;;;;;;;5020765;28;20083;-76
2021/07/15 12:13:31;;;;;;;5.82;3.00;;;;;;;;;;5002909;28;20576;-75
2021/07/15 12:16:15;;;;;;;4.18;2.88;;;;;;;;;;5019010;28;20091;-77
2021/07/15 12:19:03;;;;;;;4.78;2.75;;;;;;;;;;5019379;28;20036;-74
2021/07/15 12:21:48;;;;;;;4.68;2.92;;;;;;;;;;5022327;28;20048;-74
2021/07/15 12:24:32;;;;;;;3.92;3.20;;;;;;;;;;5002329;28;20091;-75
2021/07/15 12:27:17;;;;;;;4.53;2.92;;;;;;;;;;5022119;28;20048;-75
2021/07/15 12:30:01;;;;;;;4.03;3.03;;;;;;;;;;5016536;28;20068;-75
2021/07/15 12:32:55;;;;;;;3.88;2.88;;;;;;;;;;5022339;28;20067;-74
2021/07/15 12:35:40;;;;;;;5.93;3.17;;;;;;;;;;5017009;28;20148;-76
2021/07/15 12:38:25;;;;;;;5.63;3.10;;;;;;;;;;5017120;28;20076;-75
2021/07/15 12:41:23;;;;;;;4.63;2.88;;;;;;;;;;5019623;28;20052;-74
2021/07/15 12:44:12;;;;;;;2.95;2.50;;;;;;;;;;5032567;28;20048;-74
2021/07/15 12:46:57;;;;;;;4.10;3.10;;;;;;;;;;5020371;28;20413;-75
2021/07/15 12:49:42;;;;;;;6.80;3.15;;;;;;;;;;5019552;28;20894;-73
2021/07/15 12:52:28;;;;;;;5.65;3.30;;;;;;;;;;5018523;28;20106;-73
2021/07/15 12:55:12;;;;;;;4.05;2.95;;;;;;;;;;5025546;28;20064;-74
2021/07/15 12:57:57;;;;;;;3.95;3.10;;;;;;;;;;5015200;28;20075;-74
2021/07/15 13:00:41;;;;;;;4.65;2.65;;;;;;;;;;5020182;28;20103;-74
2021/07/15 13:03:26;;;;;;;4.22;2.75;;;;;;;;;;5000085;28;20163;-72
2021/07/15 13:06:11;;;;;;;3.65;3.15;;;;;;;;;;5000919;28;20067;-73
2021/07/15 13:09:03;;;;;;;3.40;2.90;;;;;;;;;;5017661;28;20592;-73
2021/07/15 13:15:00;;;;;;;4.25;3.05;;;;;;;;;;5023844;28;20075;-73
2021/07/15 13:17:46;;;;;;;4.32;2.95;;;;;;;;;;5015676;28;20044;-74
2021/07/15 13:20:31;;;;;;;4.30;2.55;;;;;;;;;;5000251;28;20044;-75
2021/07/15 13:23:16;;;;;;;5.30;2.60;;;;;;;;;;5015343;28;20677;-74
2021/07/15 13:26:00;;;;;;;4.80;2.90;;;;;;;;;;5021460;28;20114;-75
2021/07/15 13:28:45;;;;;;;4.22;2.80;;;;;;;;;;5022457;28;20111;-76
2021/07/15 13:31:29;;;;;;;9.90;3.10;;;;;;;;;;5022100;28;20129;-74
2021/07/15 13:34:14;;;;;;;6.38;3.00;;;;;;;;;;5020983;28;20163;-80
2021/07/15 13:36:58;;;;;;;3.30;2.92;;;;;;;;;;5023683;28;20455;-83
2021/07/15 13:39:47;;;;;;;4.65;2.90;;;;;;;;;;5012227;28;20130;-79
2021/07/15 13:42:35;;;;;;;5.22;3.55;;;;;;;;;;5012287;28;20069;-78
2021/07/15 13:45:24;;;;;;;4.38;3.10;;;;;;;;;;5007691;28;20048;-84
2021/07/15 13:48:12;;;;;;;3.80;3.17;;;;;;;;;;5016534;28;20133;-81
2021/07/15 13:51:01;;;;;;;5.07;3.20;;;;;;;;;;5021413;28;20100;-75
2021/07/15 13:53:46;;;;;;;4.78;3.13;;;;;;;;;;5022162;28;20537;-88
2021/07/15 13:56:30;;;;;;;5.35;2.88;;;;;;;;;;5023071;28;20046;-87
2021/07/15 13:59:15;;;;;;;3.88;2.70;;;;;;;;;;5023190;28;20041;-87
2021/07/15 14:02:12;;;;;;;5.18;3.00;;;;;;;;;;5023530;28;20091;-87
2021/07/15 14:05:00;;;;;;;4.55;3.17;;;;;;;;;;5009422;28;20099;-87
2021/07/15 14:07:45;;;;;;;3.40;2.85;;;;;;;;;;5025277;28;20512;-87
2021/07/15 14:10:29;;;;;;;3.85;2.80;;;;;;;;;;5026337;28;20398;-89
2021/07/15 14:13:14;;;;;;;6.55;2.90;;;;;;;;;;5026814;28;20045;-87
2021/07/15 14:16:00;;;;;;;4.30;2.92;;;;;;;;;;5022262;28;20566;-87
2021/07/15 14:18:45;;;;;;;4.05;2.92;;;;;;;;;;5026536;28;20040;-88
2021/07/15 14:21:30;;;;;;;4.28;3.03;;;;;;;;;;5012749;28;20036;-87
2021/07/15 14:24:15;;;;;;;5.47;2.72;;;;;;;;;;5027374;28;20083;-88
2021/07/15 14:26:59;;;;;;;3.08;2.60;;;;;;;;;;5024582;28;20091;-88
2021/07/15 14:29:44;;;;;;;3.20;2.70;;;;;;;;;;5021449;28;20572;-86
2021/07/15 14:32:29;;;;;;;3.85;2.95;;;;;;;;;;5025667;28;20719;-85
2021/07/15 14:35:14;;;;;;;3.15;2.85;;;;;;;;;;5027694;28;20080;-88
2021/07/15 14:37:59;;;;;;;4.13;2.78;;;;;;;;;;5024912;28;20137;-86
2021/07/15 14:40:44;;;;;;;5.68;3.25;;;;;;;;;;5012922;28;20051;-87
2021/07/15 14:43:28;;;;;;;3.08;2.78;;;;;;;;;;5022177;28;20067;-87
2021/07/15 14:46:16;;;;;;;3.28;2.97;;;;;;;;;;5025875;28;20087;-87
2021/07/15 14:49:01;;;;;;;3.58;2.47;;;;;;;;;;5025268;28;20921;-88
2021/07/15 14:51:46;;;;;;;3.20;2.90;;;;;;;;;;5015600;28;20783;-89
2021/07/15 14:54:30;;;;;;;4.03;2.80;;;;;;;;;;5007432;28;20049;-80
2021/07/15 14:57:15;;;;;;;4.15;3.33;;;;;;;;;;5018024;28;20048;-89
2021/07/15 15:00:00;;;;;;;4.05;3.00;;;;;;;;;;5012727;28;20040;-88
2021/07/15 15:02:50;;;;;;;5.68;2.97;;;;;;;;;;5012167;28;20060;-88
2021/07/15 15:05:35;;;;;;;3.42;2.90;;;;;;;;;;5026288;28;20044;-86
2021/07/15 15:08:19;;;;;;;3.22;2.92;;;;;;;;;;5027063;28;20083;-90
2021/07/15 15:11:04;;;;;;;3.80;3.03;;;;;;;;;;5012546;28;20132;-89
2021/07/15 15:13:48;;;;;;;3.30;3.00;;;;;;;;;;5025638;28;20121;-89
2021/07/15 15:16:34;;;;;;;3.90;3.03;;;;;;;;;;5021506;28;20107;-76
2021/07/15 15:19:19;;;;;;;3.40;2.80;;;;;;;;;;5020980;28;20040;-76
2021/07/15 15:22:04;;;;;;;3.78;3.08;;;;;;;;;;5017488;28;20132;-76
2021/07/15 15:24:49;;;;;;;3.78;3.08;;;;;;;;;;5013306;28;20043;-76
2021/07/15 15:27:33;;;;;;;3.72;2.67;;;;;;;;;;5022785;28;20052;-76
2021/07/15 15:30:18;;;;;;;3.53;2.70;;;;;;;;;;5021720;28;20048;-76
2021/07/15 15:33:03;;;;;;;3.20;2.83;;;;;;;;;;5017114;28;20115;-75
2021/07/15 15:35:48;;;;;;;4.28;3.03;;;;;;;;;;5018711;28;20477;-76
2021/07/15 15:38:33;;;;;;;3.22;2.80;;;;;;;;;;5016767;28;20039;-76
2021/07/15 15:41:17;;;;;;;3.00;2.70;;;;;;;;;;5018109;28;20094;-75
2021/07/15 15:44:02;;;;;;;3.63;3.33;;;;;;;;;;5017476;28;20509;-78
2021/07/15 15:47:06;;;;;;;3.83;2.72;;;;;;;;;;5004499;28;20080;-77
2021/07/15 15:49:51;;;;;;;3.30;2.95;;;;;;;;;;5020514;28;20040;-76
2021/07/15 15:52:38;;;;;;;3.30;3.00;;;;;;;;;;5024588;28;20071;-77
2021/07/15 15:55:23;;;;;;;3.33;2.92;;;;;;;;;;5024240;28;20064;-77
2021/07/15 15:58:08;;;;;;;3.47;3.00;;;;;;;;;;5023487;28;20055;-77
2021/07/15 16:00:53;;;;;;;3.10;2.70;;;;;;;;;;5024672;28;20036;-75
2021/07/15 16:03:40;;;;;;;4.45;2.85;;;;;;;;;;5004490;28;20053;-77
2021/07/15 16:06:25;;;;;;;5.20;3.13;;;;;;;;;;5021289;28;20231;-76
2021/07/15 16:09:09;;;;;;;3.00;2.70;;;;;;;;;;5025197;28;20111;-77
2021/07/15 16:11:54;;;;;;;3.25;2.80;;;;;;;;;;5009800;28;20036;-76
2021/07/15 16:14:38;;;;;;;3.33;2.80;;;;;;;;;;5025592;28;20134;-77
2021/07/15 16:17:23;;;;;;;3.20;2.90;;;;;;;;;;5007940;28;20044;-76
2021/07/15 16:20:18;;;;;;;4.05;3.10;;;;;;;;;;5021657;28;20067;-77
2021/07/15 16:23:04;;;;;;;3.22;2.92;;;;;;;;;;5025289;28;20048;-77
2021/07/15 16:25:48;;;;;;;3.97;2.85;;;;;;;;;;5023137;28;20110;-76
2021/07/15 16:28:33;;;;;;;3.30;3.00;;;;;;;;;;5022927;28;20056;-77
2021/07/15 16:31:18;;;;;;;4.25;2.92;;;;;;;;;;5022556;28;20076;-77
2021/07/15 16:34:03;;;;;;;4.00;2.75;;;;;;;;;;5017213;28;20116;-77
2021/07/15 16:36:47;;;;;;;4.60;2.88;;;;;;;;;;5024001;28;20036;-77
2021/07/15 16:39:34;;;;;;;4.22;2.90;;;;;;;;;;5022359;28;20410;-77